Time;durP1;ratioP1;P1;durP2;ratioP2;P2;SDS_P1;SDS_P2;PMS_P1;PMS_P2;Temp;Humidity;BMP_temperature;BMP_pressure;BME280_temperature;BME280_humidity;BME280_pressure;Samples;Min_cycle;Max_cycle;Signal;HPM_P1;HPM_P2
2021/12/12 00:01:06;;;;;;;5.45;1.10;;;21.60;99.90;;;;;;5084502;28;20216;-76
2021/12/12 00:03:41;;;;;;;4.40;0.80;;;21.60;99.90;;;;;;5079203;28;20202;-76
2021/12/12 00:06:20;;;;;;;2.88;0.70;;;21.50;99.90;;;;;;5075691;28;20199;-75
2021/12/12 00:08:56;;;;;;;3.95;0.60;;;21.60;99.90;;;;;;5074011;28;20532;-76
2021/12/12 00:11:30;;;;;;;3.67;0.80;;;21.70;99.90;;;;;;5091614;28;20679;-76
2021/12/12 00:14:04;;;;;;;7.60;3.10;;;21.60;99.90;;;;;;5093142;28;20261;-75
2021/12/12 00:16:36;;;;;;;4.63;0.90;;;21.80;99.90;;;;;;5085101;28;20193;-76
2021/12/12 00:19:07;;;;;;;8.07;2.10;;;22.20;99.90;;;;;;5093495;28;20196;-77
2021/12/12 00:21:41;;;;;;;4.15;0.93;;;22.50;99.90;;;;;;5085602;28;20207;-75
2021/12/12 00:24:14;;;;;;;5.30;0.90;;;22.50;99.90;;;;;;5079158;28;20188;-76
2021/12/12 00:26:46;;;;;;;5.65;0.85;;;22.30;99.90;;;;;;5089667;28;20196;-76
2021/12/12 00:29:19;;;;;;;3.75;0.77;;;22.10;99.90;;;;;;5081394;28;20219;-76
2021/12/12 00:31:52;;;;;;;2.35;0.60;;;22.00;99.90;;;;;;5080806;28;20734;-76
2021/12/12 00:34:28;;;;;;;4.95;1.00;;;21.90;99.90;;;;;;5073245;28;20233;-77
2021/12/12 00:37:01;;;;;;;4.60;0.82;;;21.90;99.90;;;;;;5089645;28;20185;-77
2021/12/12 00:39:38;;;;;;;4.57;0.95;;;22.00;99.90;;;;;;5088609;28;20591;-77
2021/12/12 00:42:14;;;;;;;4.82;0.80;;;22.10;99.90;;;;;;5085389;28;20188;-76
2021/12/12 00:44:47;;;;;;;5.15;1.20;;;22.30;99.90;;;;;;5084532;28;20184;-77
2021/12/12 00:47:18;;;;;;;4.50;0.80;;;22.20;99.90;;;;;;5079997;28;20189;-77
2021/12/12 00:49:50;;;;;;;4.22;1.00;;;22.30;99.90;;;;;;5081447;28;20185;-76
2021/12/12 00:52:24;;;;;;;4.47;1.02;;;22.30;99.90;;;;;;5073257;28;20567;-77
2021/12/12 00:54:55;;;;;;;3.40;0.60;;;22.40;99.90;;;;;;5089761;28;20199;-76
2021/12/12 00:57:27;;;;;;;4.70;0.80;;;22.40;99.90;;;;;;5077158;28;20188;-77
2021/12/12 00:59:57;;;;;;;3.72;0.80;;;22.40;99.90;;;;;;5092466;28;20636;-76
2021/12/12 01:02:31;;;;;;;4.20;0.80;;;22.30;99.90;;;;;;5073097;28;20187;-77
2021/12/12 01:05:08;;;;;;;3.47;1.02;;;22.20;99.90;;;;;;5077805;28;20280;-76
2021/12/12 01:07:44;;;;;;;3.67;0.95;;;22.30;99.90;;;;;;5086020;28;20553;-75
2021/12/12 01:10:25;;;;;;;3.72;0.98;;;22.20;99.90;;;;;;5083370;28;20218;-76
2021/12/12 01:12:58;;;;;;;7.13;1.05;;;22.50;99.90;;;;;;5073238;28;20212;-76
2021/12/12 01:15:33;;;;;;;5.43;0.85;;;22.60;99.90;;;;;;5081051;28;20234;-77
2021/12/12 01:18:08;;;;;;;5.72;1.25;;;22.70;99.90;;;;;;5075711;28;20192;-75
2021/12/12 01:20:41;;;;;;;7.00;1.15;;;22.80;99.90;;;;;;5088783;28;20189;-75
2021/12/12 01:23:18;;;;;;;6.15;1.00;;;22.70;99.90;;;;;;5088272;28;20554;-75
2021/12/12 01:25:51;;;;;;;4.32;1.42;;;22.70;99.90;;;;;;5084182;28;20206;-76
2021/12/12 01:28:25;;;;;;;4.85;0.90;;;22.60;99.90;;;;;;5084318;28;20199;-76
2021/12/12 01:30:58;;;;;;;4.82;1.20;;;22.80;99.90;;;;;;5088610;28;20223;-75
2021/12/12 01:33:35;;;;;;;2.72;1.08;;;22.80;99.90;;;;;;5088940;28;20232;-76
2021/12/12 01:36:11;;;;;;;5.22;1.45;;;22.60;99.90;;;;;;5073245;28;20185;-76
2021/12/12 01:38:55;;;;;;;7.75;1.52;;;22.50;99.90;;;;;;5081166;28;20210;-76
2021/12/12 01:41:30;;;;;;;5.28;1.00;;;22.50;99.90;;;;;;5084110;28;20187;-75
2021/12/12 01:44:05;;;;;;;5.03;1.40;;;22.50;99.90;;;;;;5092044;28;20191;-76
2021/12/12 01:46:40;;;;;;;5.22;1.20;;;22.70;99.90;;;;;;5083728;28;20191;-75
2021/12/12 01:49:16;;;;;;;4.60;1.25;;;22.70;99.90;;;;;;5081356;28;20189;-76
2021/12/12 01:51:48;;;;;;;5.13;1.08;;;22.70;99.90;;;;;;5088825;28;20249;-75
2021/12/12 01:54:25;;;;;;;5.78;1.10;;;22.50;99.90;;;;;;5080531;28;20185;-75
2021/12/12 01:57:00;;;;;;;7.70;1.30;;;22.40;99.90;;;;;;5080973;28;20300;-75
2021/12/12 01:59:35;;;;;;;7.18;1.27;;;22.40;99.90;;;;;;5087520;28;20189;-75
2021/12/12 02:02:12;;;;;;;7.55;1.33;;;22.30;99.90;;;;;;5081470;28;20193;-76
2021/12/12 02:04:46;;;;;;;5.25;1.00;;;22.40;99.90;;;;;;5092129;28;20187;-76
2021/12/12 02:07:20;;;;;;;7.40;1.52;;;22.20;99.90;;;;;;5081868;28;20189;-75
2021/12/12 02:09:53;;;;;;;5.80;1.40;;;22.00;99.90;;;;;;5086788;28;20524;-76
2021/12/12 02:12:25;;;;;;;8.45;1.75;;;22.10;99.90;;;;;;5083288;28;20209;-75
2021/12/12 02:14:58;;;;;;;8.85;1.67;;;21.90;99.90;;;;;;5084326;28;20192;-76
2021/12/12 02:17:36;;;;;;;7.22;1.05;;;22.00;99.90;;;;;;5087780;28;20651;-76
2021/12/12 02:20:18;;;;;;;7.15;1.40;;;22.00;99.90;;;;;;5088477;28;20228;-76
2021/12/12 02:23:02;;;;;;;7.20;1.45;;;22.00;99.90;;;;;;5076163;28;20192;-76
2021/12/12 02:37:02;;;;;;;6.53;1.48;;;21.90;99.90;;;;;;5085871;28;20196;-76
2021/12/12 02:39:35;;;;;;;4.75;0.95;;;21.90;99.90;;;;;;5084123;28;20196;-76
2021/12/12 02:42:12;;;;;;;7.57;1.00;;;21.70;99.90;;;;;;5086722;28;20195;-77
2021/12/12 02:44:44;;;;;;;6.68;1.50;;;21.70;99.90;;;;;;5086999;28;20185;-76
2021/12/12 02:47:20;;;;;;;8.68;1.40;;;21.80;99.90;;;;;;5087348;28;20185;-76
2021/12/12 02:50:07;;;;;;;6.22;1.27;;;21.90;99.90;;;;;;5077048;28;20242;-76
2021/12/12 02:52:39;;;;;;;5.32;1.27;;;21.90;99.90;;;;;;5081142;28;20228;-77
2021/12/12 02:55:15;;;;;;;5.10;1.45;;;22.00;99.90;;;;;;5083662;28;20185;-76
2021/12/12 02:57:45;;;;;;;7.65;1.55;;;21.80;99.90;;;;;;5084045;28;20183;-76
2021/12/12 03:00:19;;;;;;;7.40;1.42;;;21.70;99.90;;;;;;5087420;28;20188;-75
2021/12/12 03:02:57;;;;;;;8.43;2.08;;;21.60;99.90;;;;;;5086960;28;20189;-76
2021/12/12 03:05:31;;;;;;;8.00;1.55;;;21.70;99.90;;;;;;5089137;28;20198;-76
2021/12/12 03:08:02;;;;;;;5.57;1.13;;;21.70;99.90;;;;;;5087757;28;20200;-76
2021/12/12 03:10:38;;;;;;;10.77;1.77;;;21.70;99.90;;;;;;5088360;28;20189;-75
2021/12/12 03:13:10;;;;;;;7.97;1.30;;;21.70;99.90;;;;;;5085867;28;20189;-76
2021/12/12 03:15:43;;;;;;;9.40;1.83;;;21.60;99.90;;;;;;5087004;28;20191;-78
2021/12/12 03:18:19;;;;;;;11.23;1.75;;;21.60;99.90;;;;;;5091594;28;20189;-76
2021/12/12 03:20:55;;;;;;;11.27;1.73;;;21.70;99.90;;;;;;5083324;28;20185;-76
2021/12/12 03:23:27;;;;;;;7.63;1.45;;;21.50;99.90;;;;;;5082711;28;20185;-77
2021/12/12 03:26:04;;;;;;;5.03;1.17;;;21.40;99.90;;;;;;5090632;28;20558;-76
2021/12/12 03:28:37;;;;;;;8.60;1.40;;;21.30;99.90;;;;;;5087823;28;20180;-76
2021/12/12 03:31:10;;;;;;;7.28;1.40;;;21.10;99.90;;;;;;5085793;28;20286;-76
2021/12/12 03:33:41;;;;;;;5.72;1.20;;;21.20;99.90;;;;;;5094079;28;20622;-75
2021/12/12 03:36:15;;;;;;;9.50;1.65;;;21.30;99.90;;;;;;5093752;28;20241;-76
2021/12/12 03:41:47;;;;;;;7.97;1.13;;;21.30;99.90;;;;;;5070122;28;20574;-75
2021/12/12 03:44:21;;;;;;;9.50;1.65;;;21.30;99.90;;;;;;5091041;28;20196;-76
2021/12/12 03:46:56;;;;;;;12.23;1.80;;;21.50;99.90;;;;;;5087765;28;20189;-76
2021/12/12 03:49:27;;;;;;;9.93;1.80;;;21.30;99.90;;;;;;5083159;28;20203;-77
2021/12/12 03:51:58;;;;;;;5.93;1.27;;;21.10;99.90;;;;;;5080392;28;20208;-77
2021/12/12 03:54:28;;;;;;;8.65;1.48;;;21.00;99.90;;;;;;5091699;28;20192;-76
2021/12/12 03:57:01;;;;;;;7.70;1.17;;;21.00;99.90;;;;;;5083656;28;20185;-76
2021/12/12 03:59:32;;;;;;;7.32;1.85;;;21.00;99.90;;;;;;5084266;28;20188;-76
2021/12/12 04:02:03;;;;;;;12.57;1.58;;;21.10;99.90;;;;;;5085815;28;20203;-76
2021/12/12 04:04:36;;;;;;;6.47;1.40;;;21.00;99.90;;;;;;5091406;28;20275;-75
2021/12/12 04:07:09;;;;;;;14.02;2.25;;;21.10;99.90;;;;;;5082813;28;20679;-75
2021/12/12 04:09:42;;;;;;;8.77;1.40;;;21.10;99.90;;;;;;5092779;28;20572;-75
2021/12/12 04:12:18;;;;;;;12.20;2.15;;;21.10;99.90;;;;;;5093824;28;20216;-75
2021/12/12 04:14:52;;;;;;;8.45;1.80;;;21.00;99.90;;;;;;5082478;28;20184;-75
2021/12/12 04:17:25;;;;;;;9.20;1.70;;;20.80;99.90;;;;;;5081981;28;20192;-75
2021/12/12 04:19:59;;;;;;;9.50;1.60;;;20.70;99.90;;;;;;5086232;28;20604;-75
2021/12/12 04:22:33;;;;;;;8.90;1.60;;;20.90;99.90;;;;;;5093066;28;20644;-75
2021/12/12 04:25:04;;;;;;;6.22;1.40;;;21.10;99.90;;;;;;5087354;28;20189;-75
2021/12/12 04:27:37;;;;;;;8.73;1.70;;;21.10;99.90;;;;;;5084836;28;20195;-75
2021/12/12 04:30:11;;;;;;;7.22;2.00;;;21.30;99.90;;;;;;5085539;28;20199;-77
2021/12/12 04:32:47;;;;;;;9.75;1.60;;;21.30;99.90;;;;;;5076626;28;20208;-74
2021/12/12 04:35:22;;;;;;;10.50;1.95;;;21.20;99.90;;;;;;5085302;28;20223;-76
2021/12/12 04:37:52;;;;;;;9.73;1.73;;;21.30;99.90;;;;;;5081921;28;20192;-75
2021/12/12 04:40:25;;;;;;;14.35;2.00;;;21.40;99.90;;;;;;5081777;28;20193;-75
2021/12/12 04:42:59;;;;;;;8.25;1.77;;;21.30;99.90;;;;;;5081472;28;20563;-75
2021/12/12 04:45:43;;;;;;;9.32;1.70;;;21.10;99.90;;;;;;5088868;28;20188;-75
2021/12/12 04:51:16;;;;;;;13.65;1.83;;;21.30;99.90;;;;;;5085054;28;20192;-76
2021/12/12 04:53:51;;;;;;;12.55;1.85;;;21.30;99.90;;;;;;5084711;28;20710;-76
2021/12/12 04:56:28;;;;;;;10.88;2.17;;;21.30;99.90;;;;;;5084505;28;20270;-75
2021/12/12 04:59:05;;;;;;;13.30;2.10;;;21.20;99.90;;;;;;5084364;28;20184;-75
2021/12/12 05:01:39;;;;;;;11.50;1.95;;;21.20;99.90;;;;;;5092805;28;20192;-75
2021/12/12 05:04:16;;;;;;;14.00;2.20;;;21.30;99.90;;;;;;5081464;28;20184;-75
2021/12/12 05:06:49;;;;;;;11.23;2.20;;;21.20;99.90;;;;;;5081504;28;20238;-75
2021/12/12 05:09:27;;;;;;;9.45;1.80;;;21.20;99.90;;;;;;5081565;28;20192;-75
2021/12/12 05:12:03;;;;;;;10.68;1.80;;;21.00;99.90;;;;;;5089377;28;20216;-75
2021/12/12 05:14:40;;;;;;;9.23;1.80;;;21.00;99.90;;;;;;5081631;28;20184;-76
2021/12/12 05:17:13;;;;;;;8.43;1.60;;;21.10;99.90;;;;;;5083149;28;20617;-75
2021/12/12 05:19:52;;;;;;;9.68;1.90;;;21.00;99.90;;;;;;5084900;28;20191;-75
2021/12/12 05:22:28;;;;;;;10.27;1.70;;;21.00;99.90;;;;;;5076701;28;20242;-75
2021/12/12 05:25:02;;;;;;;8.00;1.40;;;21.10;99.90;;;;;;5084362;28;20644;-75
2021/12/12 05:27:36;;;;;;;7.55;1.75;;;21.20;99.90;;;;;;5084595;28;20192;-76
2021/12/12 05:30:13;;;;;;;7.32;1.63;;;21.40;99.90;;;;;;5083286;28;20195;-75
2021/12/12 05:32:45;;;;;;;8.38;1.67;;;21.20;99.90;;;;;;5086889;28;20207;-75
2021/12/12 05:35:17;;;;;;;10.30;1.65;;;21.20;99.90;;;;;;5084382;28;20236;-75
2021/12/12 05:37:51;;;;;;;12.13;2.10;;;21.20;99.90;;;;;;5078540;28;20193;-75
2021/12/12 05:40:27;;;;;;;9.85;1.98;;;21.00;99.90;;;;;;5089438;28;20211;-76
2021/12/12 05:43:00;;;;;;;11.35;1.80;;;21.10;99.90;;;;;;5081182;28;20211;-76
2021/12/12 05:45:33;;;;;;;11.93;1.60;;;20.80;99.90;;;;;;5081342;28;20208;-76
2021/12/12 05:48:07;;;;;;;8.48;1.80;;;20.80;99.90;;;;;;5081409;28;20200;-75
2021/12/12 05:50:39;;;;;;;8.95;1.98;;;20.80;99.90;;;;;;5083036;28;20637;-75
2021/12/12 05:53:11;;;;;;;10.52;2.08;;;20.80;99.90;;;;;;5092962;28;20306;-75
2021/12/12 05:55:47;;;;;;;12.48;1.90;;;20.70;99.90;;;;;;5084956;28;20634;-74
2021/12/12 05:58:20;;;;;;;8.88;1.70;;;20.70;99.90;;;;;;5093242;28;20188;-75
2021/12/12 06:00:56;;;;;;;12.40;1.85;;;20.60;99.90;;;;;;5091114;28;20184;-75
2021/12/12 06:03:29;;;;;;;11.27;1.73;;;20.50;99.90;;;;;;5092732;28;20184;-75
2021/12/12 06:06:01;;;;;;;10.93;1.95;;;20.50;99.90;;;;;;5084926;28;20193;-75
2021/12/12 06:08:32;;;;;;;10.75;1.92;;;20.70;99.90;;;;;;5092968;28;20189;-75
2021/12/12 06:11:04;;;;;;;10.82;1.55;;;20.70;99.90;;;;;;5084229;28;20208;-75
2021/12/12 06:13:35;;;;;;;10.20;1.60;;;20.70;99.90;;;;;;5092557;28;20689;-75
2021/12/12 06:16:09;;;;;;;8.02;1.52;;;20.60;99.90;;;;;;5090958;28;20215;-73
2021/12/12 06:18:40;;;;;;;13.35;2.10;;;20.60;99.90;;;;;;5095331;28;20708;-75
2021/12/12 06:21:16;;;;;;;10.07;1.70;;;20.70;99.90;;;;;;5081566;28;20225;-75
2021/12/12 06:23:47;;;;;;;9.48;1.70;;;20.70;99.90;;;;;;5079214;28;20199;-74
2021/12/12 06:26:20;;;;;;;10.80;1.80;;;20.70;99.90;;;;;;5095966;28;20189;-75
2021/12/12 06:28:52;;;;;;;11.43;2.20;;;20.60;99.90;;;;;;5087349;28;20185;-75
2021/12/12 06:31:25;;;;;;;8.77;1.38;;;20.60;99.90;;;;;;5095696;28;20196;-74
2021/12/12 06:33:58;;;;;;;8.48;1.55;;;20.60;99.90;;;;;;5076114;28;20228;-75
2021/12/12 06:36:29;;;;;;;7.82;1.60;;;20.60;99.90;;;;;;5084059;28;20192;-76
2021/12/12 06:39:00;;;;;;;7.70;1.33;;;20.70;99.90;;;;;;5083911;28;20207;-75
2021/12/12 06:41:31;;;;;;;9.95;1.60;;;20.70;99.90;;;;;;5091903;28;20196;-75
2021/12/12 06:44:04;;;;;;;10.98;1.80;;;20.60;99.90;;;;;;5087130;28;20195;-75
2021/12/12 06:46:37;;;;;;;8.52;1.67;;;20.60;99.90;;;;;;5095082;28;20629;-75
2021/12/12 06:49:10;;;;;;;6.72;1.38;;;20.60;99.90;;;;;;5087732;28;20189;-74
2021/12/12 06:51:43;;;;;;;9.80;1.50;;;20.50;99.90;;;;;;5087254;28;20186;-75
2021/12/12 06:54:16;;;;;;;9.10;1.55;;;20.40;99.90;;;;;;5080282;28;20196;-76
2021/12/12 06:56:51;;;;;;;10.18;1.60;;;20.60;99.90;;;;;;5086437;28;20186;-75
2021/12/12 06:59:23;;;;;;;6.95;1.20;;;20.70;99.90;;;;;;5088925;28;20546;-75
2021/12/12 07:01:59;;;;;;;8.27;1.48;;;20.70;99.90;;;;;;5086595;28;20349;-75
2021/12/12 07:04:38;;;;;;;7.72;1.55;;;20.60;99.90;;;;;;5095320;28;20220;-76
2021/12/12 07:07:11;;;;;;;8.55;1.50;;;20.60;99.90;;;;;;5076227;28;20189;-74
2021/12/12 07:09:43;;;;;;;10.82;2.25;;;20.60;99.90;;;;;;5082272;28;20189;-75
2021/12/12 07:12:21;;;;;;;8.25;1.60;;;20.60;99.90;;;;;;5094518;28;20257;-74
2021/12/12 07:14:53;;;;;;;7.38;1.50;;;20.50;99.90;;;;;;5094469;28;20188;-74
2021/12/12 07:17:30;;;;;;;6.85;1.45;;;20.50;99.90;;;;;;5075357;28;20193;-75
2021/12/12 07:20:01;;;;;;;9.40;1.67;;;20.50;99.90;;;;;;5083351;28;20670;-75
2021/12/12 07:22:33;;;;;;;8.85;1.50;;;20.40;99.90;;;;;;5086694;28;20659;-75
2021/12/12 07:25:09;;;;;;;12.20;1.92;;;20.20;99.90;;;;;;5086244;28;20193;-75
2021/12/12 07:27:40;;;;;;;9.73;1.40;;;20.30;99.90;;;;;;5094224;28;20218;-75
2021/12/12 07:30:12;;;;;;;7.50;1.52;;;20.30;99.90;;;;;;5086267;28;20189;-75
2021/12/12 07:32:48;;;;;;;9.10;1.52;;;20.20;99.90;;;;;;5080773;28;20213;-74
2021/12/12 07:35:19;;;;;;;11.10;1.65;;;20.30;99.90;;;;;;5090752;28;20282;-75
2021/12/12 07:37:50;;;;;;;9.07;1.52;;;20.30;99.90;;;;;;5083096;28;20185;-76
2021/12/12 07:40:21;;;;;;;9.00;1.70;;;20.40;99.90;;;;;;5085070;28;20650;-75
2021/12/12 07:42:56;;;;;;;8.88;2.13;;;20.40;99.90;;;;;;5094019;28;20603;-75
2021/12/12 07:45:27;;;;;;;8.77;1.40;;;20.40;99.90;;;;;;5083601;28;20675;-75
2021/12/12 07:48:00;;;;;;;9.80;1.75;;;20.40;99.90;;;;;;5082796;28;20193;-75
2021/12/12 07:50:32;;;;;;;7.65;1.45;;;20.30;99.90;;;;;;5085432;28;20188;-75
2021/12/12 07:53:08;;;;;;;8.23;1.50;;;20.30;99.90;;;;;;5085927;28;20231;-75
2021/12/12 07:55:40;;;;;;;9.68;1.20;;;20.30;99.90;;;;;;5085853;28;20184;-75
2021/12/12 07:58:17;;;;;;;6.45;1.35;;;20.30;99.90;;;;;;5086370;28;20561;-76
2021/12/12 08:00:53;;;;;;;9.80;1.65;;;20.50;99.90;;;;;;5074337;28;20204;-75
2021/12/12 08:03:28;;;;;;;6.50;1.23;;;20.40;99.90;;;;;;5091501;28;20184;-75
2021/12/12 08:06:01;;;;;;;5.80;1.27;;;20.40;99.90;;;;;;5093786;28;20188;-75
2021/12/12 08:08:34;;;;;;;7.72;1.50;;;20.30;99.90;;;;;;5077340;28;20184;-76
2021/12/12 08:11:05;;;;;;;6.28;1.20;;;20.20;99.90;;;;;;5079598;28;20193;-75
2021/12/12 08:13:36;;;;;;;7.18;1.20;;;20.00;99.90;;;;;;5087528;28;20269;-75
2021/12/12 08:16:09;;;;;;;8.63;1.52;;;19.90;99.90;;;;;;5088321;28;20188;-75
2021/12/12 08:18:43;;;;;;;5.80;1.52;;;19.80;99.90;;;;;;5091349;28;20193;-76
2021/12/12 08:21:15;;;;;;;6.53;1.20;;;20.00;99.90;;;;;;5081941;28;20218;-75
2021/12/12 08:23:47;;;;;;;6.78;1.10;;;19.80;99.90;;;;;;5081780;28;20197;-75
2021/12/12 08:26:18;;;;;;;6.85;1.30;;;19.80;99.90;;;;;;5080687;28;20261;-75
2021/12/12 08:28:49;;;;;;;5.13;1.25;;;19.60;99.90;;;;;;5093111;28;20197;-75
2021/12/12 08:31:20;;;;;;;7.93;1.50;;;19.50;99.90;;;;;;5085440;28;20659;-75
2021/12/12 08:33:52;;;;;;;6.28;1.15;;;19.40;99.90;;;;;;5084215;28;20235;-75
2021/12/12 08:36:23;;;;;;;7.28;1.65;;;19.30;99.90;;;;;;5078432;28;20239;-75
2021/12/12 08:38:58;;;;;;;6.90;1.10;;;19.20;99.90;;;;;;5092350;28;20218;-75
2021/12/12 08:41:30;;;;;;;8.05;1.75;;;19.20;99.90;;;;;;5093495;28;20195;-75
2021/12/12 08:44:01;;;;;;;9.18;1.40;;;19.20;99.90;;;;;;5085024;28;20192;-75
2021/12/12 08:46:32;;;;;;;6.20;1.25;;;19.20;99.90;;;;;;5085104;28;20208;-75
2021/12/12 08:49:05;;;;;;;8.90;1.33;;;19.20;99.90;;;;;;5092662;28;20191;-75
2021/12/12 08:51:39;;;;;;;9.82;1.55;;;19.10;99.90;;;;;;5085002;28;20200;-75
2021/12/12 08:54:15;;;;;;;9.60;1.52;;;19.00;99.90;;;;;;5089139;28;20677;-75
2021/12/12 08:56:50;;;;;;;9.43;1.35;;;19.00;99.90;;;;;;5081248;28;20276;-75
2021/12/12 08:59:25;;;;;;;7.05;1.30;;;18.90;99.90;;;;;;5087981;28;20195;-76
2021/12/12 09:01:59;;;;;;;6.40;1.40;;;18.90;99.90;;;;;;5082481;28;20227;-75
2021/12/12 09:04:37;;;;;;;4.65;1.20;;;18.90;99.90;;;;;;5086950;28;20193;-75
2021/12/12 09:07:12;;;;;;;12.48;1.33;;;18.90;99.90;;;;;;5092126;28;20219;-75
2021/12/12 09:09:48;;;;;;;7.38;1.73;;;18.80;99.90;;;;;;5085814;28;20200;-74
2021/12/12 09:12:23;;;;;;;8.18;1.38;;;18.80;99.90;;;;;;5069371;28;20196;-75
2021/12/12 09:14:58;;;;;;;7.85;1.50;;;18.80;99.90;;;;;;5085488;28;20226;-74
2021/12/12 09:17:33;;;;;;;8.45;1.67;;;18.70;99.90;;;;;;5087492;28;20263;-75
2021/12/12 09:20:14;;;;;;;7.93;1.30;;;18.70;99.90;;;;;;5089147;28;20227;-75
2021/12/12 09:23:00;;;;;;;8.23;1.63;;;18.70;99.90;;;;;;5081262;28;20669;-75
2021/12/12 09:25:39;;;;;;;4.93;1.13;;;18.70;99.90;;;;;;5081595;28;20216;-75
2021/12/12 09:28:25;;;;;;;8.73;1.27;;;18.70;99.90;;;;;;5090934;28;20713;-75
2021/12/12 09:30:57;;;;;;;6.55;1.25;;;18.70;99.90;;;;;;5072855;28;20246;-74
2021/12/12 09:33:40;;;;;;;8.07;1.42;;;18.70;99.90;;;;;;5084438;28;20663;-74
2021/12/12 09:36:18;;;;;;;10.35;1.65;;;18.70;99.90;;;;;;5090635;28;20204;-74
2021/12/12 09:38:54;;;;;;;9.80;1.42;;;18.70;99.90;;;;;;5081093;28;20189;-75
2021/12/12 09:41:53;;;;;;;8.75;1.67;;;18.80;99.90;;;;;;5089049;28;20192;-75
2021/12/12 09:44:56;;;;;;;6.78;1.38;;;18.80;99.90;;;;;;5083566;28;20196;-74
2021/12/12 09:47:57;;;;;;;6.45;1.50;;;18.90;99.90;;;;;;5083727;28;20193;-75
2021/12/12 09:54:00;;;;;;;10.73;1.58;;;18.90;99.90;;;;;;5083764;28;20231;-74
2021/12/12 09:56:40;;;;;;;8.02;1.55;;;18.90;99.90;;;;;;5083534;28;20651;-74
2021/12/12 09:59:18;;;;;;;5.28;1.15;;;18.90;99.90;;;;;;5083781;28;20196;-75
2021/12/12 10:01:56;;;;;;;9.20;1.55;;;18.90;99.90;;;;;;5092012;28;20192;-75
2021/12/12 10:04:29;;;;;;;8.68;1.77;;;18.90;99.90;;;;;;5091747;28;20199;-75
2021/12/12 10:07:08;;;;;;;6.55;1.10;;;18.80;99.90;;;;;;5083683;28;20184;-75
2021/12/12 10:09:46;;;;;;;9.13;1.50;;;18.80;99.90;;;;;;5075568;28;20193;-75
2021/12/12 10:12:20;;;;;;;9.75;1.73;;;18.80;99.90;;;;;;5092088;28;20556;-75
2021/12/12 10:14:56;;;;;;;7.00;1.60;;;18.70;99.90;;;;;;5091383;28;20208;-74
2021/12/12 10:17:34;;;;;;;10.18;1.80;;;18.70;99.90;;;;;;5088832;28;20192;-75
2021/12/12 10:20:10;;;;;;;8.38;1.40;;;18.70;99.90;;;;;;5086113;28;20188;-75
2021/12/12 10:23:03;;;;;;;9.13;1.52;;;18.70;99.90;;;;;;5091229;28;20199;-75
2021/12/12 10:25:41;;;;;;;7.10;1.65;;;18.70;99.90;;;;;;5083585;28;20777;-75
2021/12/12 10:28:21;;;;;;;6.40;1.58;;;18.70;99.90;;;;;;5083563;28;20380;-74
2021/12/12 10:30:59;;;;;;;9.15;1.30;;;18.70;99.90;;;;;;5089054;28;20241;-74
2021/12/12 10:33:37;;;;;;;8.18;1.50;;;18.70;99.90;;;;;;5091056;28;20580;-75
2021/12/12 10:36:11;;;;;;;8.98;1.55;;;18.70;99.90;;;;;;5078155;28;20204;-75
2021/12/12 10:38:47;;;;;;;7.70;1.33;;;18.70;99.90;;;;;;5086765;28;20199;-74
2021/12/12 10:41:26;;;;;;;7.70;1.60;;;18.70;99.90;;;;;;5095458;28;20195;-74
2021/12/12 10:44:00;;;;;;;10.35;1.65;;;18.70;99.90;;;;;;5086877;28;20192;-75
2021/12/12 10:46:40;;;;;;;7.70;1.38;;;18.70;99.90;;;;;;5086914;28;20219;-74
2021/12/12 10:49:22;;;;;;;11.30;1.92;;;18.70;99.90;;;;;;5087072;28;20272;-74
2021/12/12 10:51:58;;;;;;;7.28;1.33;;;18.70;99.90;;;;;;5086548;28;20733;-75
2021/12/12 10:54:32;;;;;;;7.15;1.42;;;18.60;99.90;;;;;;5095036;28;20211;-75
2021/12/12 10:57:13;;;;;;;10.00;1.40;;;18.60;99.90;;;;;;5086606;28;20183;-76
2021/12/12 10:59:50;;;;;;;13.10;1.85;;;18.60;99.90;;;;;;5086362;28;20192;-76
2021/12/12 11:02:25;;;;;;;9.40;1.50;;;18.60;99.90;;;;;;5083610;28;20192;-76
2021/12/12 11:04:59;;;;;;;11.48;1.60;;;18.60;99.90;;;;;;5084628;28;20199;-74
2021/12/12 11:07:32;;;;;;;13.30;1.92;;;18.60;99.90;;;;;;5094481;28;20189;-74
2021/12/12 11:10:08;;;;;;;8.05;1.45;;;18.60;99.90;;;;;;5094560;28;20193;-74
2021/12/12 11:12:48;;;;;;;8.85;1.85;;;18.60;99.90;;;;;;5094616;28;20204;-74
2021/12/12 11:15:29;;;;;;;10.15;1.58;;;18.60;99.90;;;;;;5087050;28;20208;-75
2021/12/12 11:18:13;;;;;;;7.95;1.88;;;18.70;99.90;;;;;;5086076;28;20242;-74
2021/12/12 11:20:47;;;;;;;11.63;1.85;;;18.60;99.90;;;;;;5094711;28;20181;-75
2021/12/12 11:23:21;;;;;;;11.15;1.83;;;18.60;99.90;;;;;;5090880;28;20196;-76
2021/12/12 11:25:55;;;;;;;11.10;1.70;;;18.60;99.90;;;;;;5082607;28;20189;-75
2021/12/12 11:28:32;;;;;;;6.38;1.35;;;18.60;99.90;;;;;;5086650;28;20184;-75
2021/12/12 11:31:07;;;;;;;11.82;2.00;;;18.50;99.90;;;;;;5085138;28;20196;-75
2021/12/12 11:33:39;;;;;;;7.07;1.58;;;18.60;99.90;;;;;;5087818;28;20230;-75
2021/12/12 11:36:13;;;;;;;8.02;1.33;;;18.60;99.90;;;;;;5092836;28;20185;-75
2021/12/12 11:38:47;;;;;;;10.57;1.80;;;18.60;99.90;;;;;;5088762;28;20245;-75
2021/12/12 11:41:23;;;;;;;8.23;1.67;;;18.60;99.90;;;;;;5085801;28;20200;-75
2021/12/12 11:44:06;;;;;;;12.48;2.05;;;18.50;99.90;;;;;;5093875;28;20184;-75
2021/12/12 11:46:41;;;;;;;9.23;1.70;;;18.50;99.90;;;;;;5086971;28;20188;-75
2021/12/12 11:49:22;;;;;;;11.88;1.90;;;18.50;99.90;;;;;;5084832;28;20544;-75
2021/12/12 11:51:57;;;;;;;11.00;1.90;;;18.50;99.90;;;;;;5087342;28;20195;-75
2021/12/12 11:54:43;;;;;;;10.45;2.20;;;18.50;99.90;;;;;;5076667;28;20220;-75
2021/12/12 11:57:17;;;;;;;13.15;2.10;;;18.50;99.90;;;;;;5085095;28;20184;-75
2021/12/12 12:00:05;;;;;;;10.75;1.95;;;18.50;99.90;;;;;;5087389;28;20270;-75
2021/12/12 12:02:39;;;;;;;13.20;2.03;;;18.50;99.90;;;;;;5085300;28;20196;-75
2021/12/12 12:05:25;;;;;;;9.82;1.70;;;18.50;99.90;;;;;;5093911;28;20198;-76
2021/12/12 12:08:09;;;;;;;12.55;1.83;;;18.50;99.90;;;;;;5093420;28;20271;-75
2021/12/12 12:10:53;;;;;;;12.88;2.00;;;18.40;99.90;;;;;;5082080;28;20189;-75
2021/12/12 12:13:55;;;;;;;12.00;2.00;;;18.40;99.90;;;;;;5082337;28;20192;-75
2021/12/12 12:16:52;;;;;;;14.10;1.88;;;18.40;99.90;;;;;;5092180;28;20293;-75
2021/12/12 12:19:37;;;;;;;9.88;1.60;;;18.40;99.90;;;;;;5089868;28;20188;-75
2021/12/12 12:22:24;;;;;;;12.07;1.95;;;18.40;99.90;;;;;;5082063;28;20204;-75
2021/12/12 12:25:02;;;;;;;9.32;1.60;;;18.30;99.90;;;;;;5086441;28;20192;-75
2021/12/12 12:27:38;;;;;;;12.70;2.30;;;18.30;99.90;;;;;;5084877;28;20234;-75
2021/12/12 12:30:42;;;;;;;10.02;1.75;;;18.30;99.90;;;;;;5086420;28;20706;-75
2021/12/12 12:33:41;;;;;;;8.57;1.70;;;18.40;99.90;;;;;;5079521;28;20811;-75
2021/12/12 12:36:50;;;;;;;8.45;1.52;;;18.30;99.90;;;;;;5089116;28;20599;-75
2021/12/12 12:40:01;;;;;;;10.40;1.80;;;18.30;99.90;;;;;;5093015;28;20192;-75
2021/12/12 12:43:09;;;;;;;8.77;1.60;;;18.30;99.90;;;;;;5071798;28;20196;-76
2021/12/12 12:46:22;;;;;;;8.05;1.40;;;18.20;99.90;;;;;;5091109;28;20196;-75
2021/12/12 12:49:28;;;;;;;13.15;2.05;;;18.20;99.90;;;;;;5054518;28;20196;-75
2021/12/12 12:52:33;;;;;;;9.90;1.83;;;18.20;99.90;;;;;;5078358;28;20204;-75
2021/12/12 12:55:31;;;;;;;11.75;1.63;;;18.20;99.90;;;;;;5081316;28;20235;-75
2021/12/12 12:58:17;;;;;;;9.05;1.40;;;18.10;99.90;;;;;;5080992;28;20196;-75
2021/12/12 13:00:49;;;;;;;12.65;1.67;;;18.20;99.90;;;;;;5081823;28;20229;-75
2021/12/12 13:03:36;;;;;;;9.93;1.70;;;18.20;99.90;;;;;;5088384;28;20230;-75
2021/12/12 13:06:50;;;;;;;12.48;1.65;;;18.10;99.90;;;;;;5081197;28;20192;-75
2021/12/12 13:09:45;;;;;;;7.63;1.80;;;18.10;99.90;;;;;;5066225;28;20289;-75
2021/12/12 13:12:55;;;;;;;10.15;1.90;;;18.10;99.90;;;;;;5081565;28;20196;-75
2021/12/12 13:15:43;;;;;;;13.23;1.70;;;18.10;99.90;;;;;;5067771;28;20220;-75
2021/12/12 13:18:31;;;;;;;12.70;1.40;;;18.10;99.90;;;;;;5086747;28;20219;-75
2021/12/12 13:21:27;;;;;;;14.70;1.70;;;18.10;99.90;;;;;;5076546;28;20185;-75
2021/12/12 13:24:10;;;;;;;9.10;1.70;;;18.10;99.90;;;;;;5071562;28;20209;-75
2021/12/12 13:26:56;;;;;;;9.45;1.75;;;18.10;99.90;;;;;;5089614;28;20181;-75
2021/12/12 13:29:47;;;;;;;10.70;1.77;;;18.10;99.90;;;;;;5083950;28;20312;-75
2021/12/12 13:32:27;;;;;;;12.60;2.00;;;18.10;99.90;;;;;;5081109;28;20196;-75
2021/12/12 13:35:06;;;;;;;12.90;1.98;;;18.10;99.90;;;;;;5083348;28;20236;-75
2021/12/12 13:37:41;;;;;;;11.68;1.75;;;18.10;99.90;;;;;;5083906;28;20230;-75
2021/12/12 13:40:24;;;;;;;7.88;1.80;;;18.10;99.90;;;;;;5081031;28;20190;-75
2021/12/12 13:43:09;;;;;;;11.65;2.17;;;18.10;99.90;;;;;;5090737;28;20267;-75
2021/12/12 13:45:41;;;;;;;13.80;2.00;;;18.10;99.90;;;;;;5083756;28;20554;-75
2021/12/12 13:48:35;;;;;;;12.20;1.85;;;18.20;99.90;;;;;;5085255;28;20191;-75
2021/12/12 13:51:17;;;;;;;12.85;2.10;;;18.20;99.90;;;;;;5091699;28;20203;-75
2021/12/12 13:53:58;;;;;;;10.30;1.70;;;18.20;99.90;;;;;;5082943;28;20216;-75